sensor_id;sensor_type;location;lat;lon;timestamp;temperature;humidity
30678;DHT22;17437;47.188;8.896;2023-06-26T00:01:32;20.70;99.90
30678;DHT22;17437;47.188;8.896;2023-06-26T00:04:03;20.70;99.90
30678;DHT22;17437;47.188;8.896;2023-06-26T00:06:35;20.70;99.90
30678;DHT22;17437;47.188;8.896;2023-06-26T00:09:09;20.80;99.90
30678;DHT22;17437;47.188;8.896;2023-06-26T00:11:40;20.80;99.90
30678;DHT22;17437;47.188;8.896;2023-06-26T00:14:12;20.80;99.90
30678;DHT22;17437;47.188;8.896;2023-06-26T00:16:44;20.80;99.90
30678;DHT22;17437;47.188;8.896;2023-06-26T00:19:15;20.70;99.90
30678;DHT22;17437;47.188;8.896;2023-06-26T00:21:47;20.60;99.90
30678;DHT22;17437;47.188;8.896;2023-06-26T00:24:19;20.60;99.90
30678;DHT22;17437;47.188;8.896;2023-06-26T00:26:51;20.60;99.90
30678;DHT22;17437;47.188;8.896;2023-06-26T00:29:22;20.70;99.90
30678;DHT22;17437;47.188;8.896;2023-06-26T00:31:54;20.70;99.90
30678;DHT22;17437;47.188;8.896;2023-06-26T00:34:25;20.70;99.90
30678;DHT22;17437;47.188;8.896;2023-06-26T00:36:57;20.70;99.90
30678;DHT22;17437;47.188;8.896;2023-06-26T00:39:28;20.70;99.90
30678;DHT22;17437;47.188;8.896;2023-06-26T00:42:00;20.80;99.90
30678;DHT22;17437;47.188;8.896;2023-06-26T00:44:32;20.80;99.90
30678;DHT22;17437;47.188;8.896;2023-06-26T00:47:04;20.70;99.90
30678;DHT22;17437;47.188;8.896;2023-06-26T00:49:36;20.60;99.90
30678;DHT22;17437;47.188;8.896;2023-06-26T00:52:08;20.30;99.90
30678;DHT22;17437;47.188;8.896;2023-06-26T00:54:41;20.10;99.90
30678;DHT22;17437;47.188;8.896;2023-06-26T00:57:12;20.10;99.90
30678;DHT22;17437;47.188;8.896;2023-06-26T00:59:44;20.10;99.90
30678;DHT22;17437;47.188;8.896;2023-06-26T01:02:15;20.10;99.90
30678;DHT22;17437;47.188;8.896;2023-06-26T01:04:48;20.10;99.90
30678;DHT22;17437;47.188;8.896;2023-06-26T01:07:21;20.10;99.90
30678;DHT22;17437;47.188;8.896;2023-06-26T01:09:52;20.20;99.90
30678;DHT22;17437;47.188;8.896;2023-06-26T01:12:25;20.30;99.90
30678;DHT22;17437;47.188;8.896;2023-06-26T01:14:56;20.30;99.90
30678;DHT22;17437;47.188;8.896;2023-06-26T01:17:28;20.30;99.90
30678;DHT22;17437;47.188;8.896;2023-06-26T01:20:03;20.30;99.90
30678;DHT22;17437;47.188;8.896;2023-06-26T01:22:42;20.30;99.90
30678;DHT22;17437;47.188;8.896;2023-06-26T01:25:20;20.40;99.90
30678;DHT22;17437;47.188;8.896;2023-06-26T01:27:54;20.40;99.90
30678;DHT22;17437;47.188;8.896;2023-06-26T01:30:27;20.40;99.90
30678;DHT22;17437;47.188;8.896;2023-06-26T01:32:59;20.40;99.90
30678;DHT22;17437;47.188;8.896;2023-06-26T01:35:32;20.40;99.90
30678;DHT22;17437;47.188;8.896;2023-06-26T01:38:14;20.40;99.90
30678;DHT22;17437;47.188;8.896;2023-06-26T01:40:47;20.40;99.90
30678;DHT22;17437;47.188;8.896;2023-06-26T01:43:23;20.40;99.90
30678;DHT22;17437;47.188;8.896;2023-06-26T01:45:58;20.30;99.90
30678;DHT22;17437;47.188;8.896;2023-06-26T01:48:33;20.30;99.90
30678;DHT22;17437;47.188;8.896;2023-06-26T01:51:07;20.30;99.90
30678;DHT22;17437;47.188;8.896;2023-06-26T01:53:41;20.30;99.90
30678;DHT22;17437;47.188;8.896;2023-06-26T01:56:15;20.40;99.90
30678;DHT22;17437;47.188;8.896;2023-06-26T01:58:50;20.40;99.90
30678;DHT22;17437;47.188;8.896;2023-06-26T02:01:23;20.40;99.90
30678;DHT22;17437;47.188;8.896;2023-06-26T02:03:55;20.30;99.90
30678;DHT22;17437;47.188;8.896;2023-06-26T02:06:27;20.30;99.90
30678;DHT22;17437;47.188;8.896;2023-06-26T02:08:58;20.30;99.90
30678;DHT22;17437;47.188;8.896;2023-06-26T02:11:31;20.20;99.90
30678;DHT22;17437;47.188;8.896;2023-06-26T02:14:02;20.20;99.90
30678;DHT22;17437;47.188;8.896;2023-06-26T02:16:34;20.20;99.90
30678;DHT22;17437;47.188;8.896;2023-06-26T02:19:05;20.20;99.90
30678;DHT22;17437;47.188;8.896;2023-06-26T02:21:37;20.20;99.90
30678;DHT22;17437;47.188;8.896;2023-06-26T02:24:09;20.10;99.90
30678;DHT22;17437;47.188;8.896;2023-06-26T02:26:40;20.00;99.90
30678;DHT22;17437;47.188;8.896;2023-06-26T02:29:12;19.80;99.90
30678;DHT22;17437;47.188;8.896;2023-06-26T02:31:43;19.70;99.90
30678;DHT22;17437;47.188;8.896;2023-06-26T02:34:15;19.50;99.90
30678;DHT22;17437;47.188;8.896;2023-06-26T02:36:47;19.50;99.90
30678;DHT22;17437;47.188;8.896;2023-06-26T02:39:19;19.50;99.90
30678;DHT22;17437;47.188;8.896;2023-06-26T02:41:50;19.30;99.90
30678;DHT22;17437;47.188;8.896;2023-06-26T02:44:22;19.40;99.90
30678;DHT22;17437;47.188;8.896;2023-06-26T02:46:53;19.40;99.90
30678;DHT22;17437;47.188;8.896;2023-06-26T02:49:25;19.40;99.90
30678;DHT22;17437;47.188;8.896;2023-06-26T02:51:57;19.40;99.90
30678;DHT22;17437;47.188;8.896;2023-06-26T02:54:28;19.40;99.90
30678;DHT22;17437;47.188;8.896;2023-06-26T02:57:00;19.30;99.90
30678;DHT22;17437;47.188;8.896;2023-06-26T02:59:31;19.10;99.90
30678;DHT22;17437;47.188;8.896;2023-06-26T03:02:03;18.90;99.90
30678;DHT22;17437;47.188;8.896;2023-06-26T03:04:35;18.80;99.90
30678;DHT22;17437;47.188;8.896;2023-06-26T03:07:07;18.80;99.90
30678;DHT22;17437;47.188;8.896;2023-06-26T03:09:38;18.70;99.90
30678;DHT22;17437;47.188;8.896;2023-06-26T03:12:10;18.60;99.90
30678;DHT22;17437;47.188;8.896;2023-06-26T03:14:42;18.60;99.90
30678;DHT22;17437;47.188;8.896;2023-06-26T03:17:15;18.60;99.90
30678;DHT22;17437;47.188;8.896;2023-06-26T03:19:46;18.70;99.90
30678;DHT22;17437;47.188;8.896;2023-06-26T03:22:18;18.70;99.90
30678;DHT22;17437;47.188;8.896;2023-06-26T03:24:50;18.70;99.90
30678;DHT22;17437;47.188;8.896;2023-06-26T03:27:21;18.60;99.90
30678;DHT22;17437;47.188;8.896;2023-06-26T03:29:53;18.60;99.90
30678;DHT22;17437;47.188;8.896;2023-06-26T03:32:25;18.60;99.90
30678;DHT22;17437;47.188;8.896;2023-06-26T03:34:56;18.60;99.90
30678;DHT22;17437;47.188;8.896;2023-06-26T03:37:28;18.60;99.90
30678;DHT22;17437;47.188;8.896;2023-06-26T03:40:00;18.60;99.90
30678;DHT22;17437;47.188;8.896;2023-06-26T03:42:31;18.70;99.90
30678;DHT22;17437;47.188;8.896;2023-06-26T03:45:04;18.70;99.90
30678;DHT22;17437;47.188;8.896;2023-06-26T03:47:35;18.70;99.90
30678;DHT22;17437;47.188;8.896;2023-06-26T03:50:09;18.70;99.90
30678;DHT22;17437;47.188;8.896;2023-06-26T03:52:41;18.70;99.90
30678;DHT22;17437;47.188;8.896;2023-06-26T03:55:13;18.70;99.90
30678;DHT22;17437;47.188;8.896;2023-06-26T03:57:46;18.80;99.90
30678;DHT22;17437;47.188;8.896;2023-06-26T04:00:18;18.90;99.90
30678;DHT22;17437;47.188;8.896;2023-06-26T04:02:50;18.90;99.90
30678;DHT22;17437;47.188;8.896;2023-06-26T04:05:22;19.00;99.90
30678;DHT22;17437;47.188;8.896;2023-06-26T04:07:53;19.00;99.90
30678;DHT22;17437;47.188;8.896;2023-06-26T04:10:25;19.20;99.90
30678;DHT22;17437;47.188;8.896;2023-06-26T04:12:57;19.20;99.90
30678;DHT22;17437;47.188;8.896;2023-06-26T04:15:29;19.40;99.90
30678;DHT22;17437;47.188;8.896;2023-06-26T04:18:00;20.00;99.90
30678;DHT22;17437;47.188;8.896;2023-06-26T04:20:37;20.80;99.90
30678;DHT22;17437;47.188;8.896;2023-06-26T04:23:07;21.40;99.90
30678;DHT22;17437;47.188;8.896;2023-06-26T04:25:39;22.10;99.90
30678;DHT22;17437;47.188;8.896;2023-06-26T04:28:10;22.60;99.90
30678;DHT22;17437;47.188;8.896;2023-06-26T04:30:42;23.30;99.90
30678;DHT22;17437;47.188;8.896;2023-06-26T04:33:13;23.50;99.90
30678;DHT22;17437;47.188;8.896;2023-06-26T04:35:46;23.80;99.90
30678;DHT22;17437;47.188;8.896;2023-06-26T04:38:19;24.20;99.90
30678;DHT22;17437;47.188;8.896;2023-06-26T04:40:52;24.40;99.90
30678;DHT22;17437;47.188;8.896;2023-06-26T04:43:23;24.60;99.90
30678;DHT22;17437;47.188;8.896;2023-06-26T04:45:55;24.80;99.90
30678;DHT22;17437;47.188;8.896;2023-06-26T04:48:28;24.90;99.90
30678;DHT22;17437;47.188;8.896;2023-06-26T04:51:01;25.00;99.90
30678;DHT22;17437;47.188;8.896;2023-06-26T04:53:32;25.40;99.90
30678;DHT22;17437;47.188;8.896;2023-06-26T04:56:04;25.50;99.90
30678;DHT22;17437;47.188;8.896;2023-06-26T04:58:36;25.80;99.90
30678;DHT22;17437;47.188;8.896;2023-06-26T05:01:07;26.10;99.90
30678;DHT22;17437;47.188;8.896;2023-06-26T05:03:41;26.20;99.90
30678;DHT22;17437;47.188;8.896;2023-06-26T05:06:13;26.20;99.90
30678;DHT22;17437;47.188;8.896;2023-06-26T05:08:45;26.40;99.90
30678;DHT22;17437;47.188;8.896;2023-06-26T05:11:16;26.90;99.90
30678;DHT22;17437;47.188;8.896;2023-06-26T05:13:48;27.30;99.90
30678;DHT22;17437;47.188;8.896;2023-06-26T05:16:20;27.70;99.90
30678;DHT22;17437;47.188;8.896;2023-06-26T05:18:51;27.90;99.90
30678;DHT22;17437;47.188;8.896;2023-06-26T05:21:25;28.00;99.90
30678;DHT22;17437;47.188;8.896;2023-06-26T05:23:57;28.10;99.90
30678;DHT22;17437;47.188;8.896;2023-06-26T05:26:29;28.30;99.90
30678;DHT22;17437;47.188;8.896;2023-06-26T05:29:02;28.40;99.90
30678;DHT22;17437;47.188;8.896;2023-06-26T05:31:36;28.70;99.90
30678;DHT22;17437;47.188;8.896;2023-06-26T05:34:10;28.60;99.90
30678;DHT22;17437;47.188;8.896;2023-06-26T05:36:42;28.40;99.90
30678;DHT22;17437;47.188;8.896;2023-06-26T05:39:15;28.60;99.90
30678;DHT22;17437;47.188;8.896;2023-06-26T05:41:47;28.80;99.90
30678;DHT22;17437;47.188;8.896;2023-06-26T05:44:19;28.90;99.90
30678;DHT22;17437;47.188;8.896;2023-06-26T05:46:51;29.00;99.90
30678;DHT22;17437;47.188;8.896;2023-06-26T05:49:23;29.00;99.90
30678;DHT22;17437;47.188;8.896;2023-06-26T05:51:55;28.80;99.90
30678;DHT22;17437;47.188;8.896;2023-06-26T05:54:28;29.10;99.90
30678;DHT22;17437;47.188;8.896;2023-06-26T05:57:01;29.10;99.90
30678;DHT22;17437;47.188;8.896;2023-06-26T05:59:38;29.30;99.90
30678;DHT22;17437;47.188;8.896;2023-06-26T06:02:12;29.60;99.90
30678;DHT22;17437;47.188;8.896;2023-06-26T06:04:46;30.20;99.90
30678;DHT22;17437;47.188;8.896;2023-06-26T06:07:18;30.50;99.90
30678;DHT22;17437;47.188;8.896;2023-06-26T06:09:50;30.60;99.90
30678;DHT22;17437;47.188;8.896;2023-06-26T06:12:21;30.70;99.90
30678;DHT22;17437;47.188;8.896;2023-06-26T06:14:53;30.70;99.90
30678;DHT22;17437;47.188;8.896;2023-06-26T06:17:25;30.60;99.90
30678;DHT22;17437;47.188;8.896;2023-06-26T06:19:56;30.40;99.90
30678;DHT22;17437;47.188;8.896;2023-06-26T06:22:28;30.80;99.90
30678;DHT22;17437;47.188;8.896;2023-06-26T06:24:59;30.50;99.90
30678;DHT22;17437;47.188;8.896;2023-06-26T06:27:31;30.60;99.90
30678;DHT22;17437;47.188;8.896;2023-06-26T06:30:03;31.10;99.90
30678;DHT22;17437;47.188;8.896;2023-06-26T06:32:36;31.00;99.80
30678;DHT22;17437;47.188;8.896;2023-06-26T06:35:08;30.80;99.60
30678;DHT22;17437;47.188;8.896;2023-06-26T06:37:40;31.00;99.40
30678;DHT22;17437;47.188;8.896;2023-06-26T06:40:13;31.10;98.50
30678;DHT22;17437;47.188;8.896;2023-06-26T06:42:45;31.50;98.30
30678;DHT22;17437;47.188;8.896;2023-06-26T06:45:16;31.70;98.00
30678;DHT22;17437;47.188;8.896;2023-06-26T06:47:48;31.80;97.40
30678;DHT22;17437;47.188;8.896;2023-06-26T06:50:20;31.80;97.30
30678;DHT22;17437;47.188;8.896;2023-06-26T06:52:51;31.90;96.70
30678;DHT22;17437;47.188;8.896;2023-06-26T06:55:23;32.00;97.20
30678;DHT22;17437;47.188;8.896;2023-06-26T06:57:56;32.00;97.00
30678;DHT22;17437;47.188;8.896;2023-06-26T07:00:27;31.70;97.60
30678;DHT22;17437;47.188;8.896;2023-06-26T07:02:59;31.70;97.40
30678;DHT22;17437;47.188;8.896;2023-06-26T07:05:31;31.50;97.20
30678;DHT22;17437;47.188;8.896;2023-06-26T07:08:03;31.30;97.90
30678;DHT22;17437;47.188;8.896;2023-06-26T07:10:35;31.10;98.40
30678;DHT22;17437;47.188;8.896;2023-06-26T07:13:07;31.60;97.40
30678;DHT22;17437;47.188;8.896;2023-06-26T07:15:39;31.90;96.60
30678;DHT22;17437;47.188;8.896;2023-06-26T07:18:10;32.20;96.30
30678;DHT22;17437;47.188;8.896;2023-06-26T07:20:42;32.20;96.50
30678;DHT22;17437;47.188;8.896;2023-06-26T07:23:15;31.90;95.70
30678;DHT22;17437;47.188;8.896;2023-06-26T07:25:46;32.20;95.90
30678;DHT22;17437;47.188;8.896;2023-06-26T07:28:18;32.40;95.10
30678;DHT22;17437;47.188;8.896;2023-06-26T07:30:49;32.40;95.20
30678;DHT22;17437;47.188;8.896;2023-06-26T07:33:22;32.60;95.20
30678;DHT22;17437;47.188;8.896;2023-06-26T07:35:54;32.40;95.10
30678;DHT22;17437;47.188;8.896;2023-06-26T07:38:25;32.40;95.60
30678;DHT22;17437;47.188;8.896;2023-06-26T07:40:57;32.30;95.40
30678;DHT22;17437;47.188;8.896;2023-06-26T07:43:29;32.20;94.60
30678;DHT22;17437;47.188;8.896;2023-06-26T07:46:01;31.90;95.10
30678;DHT22;17437;47.188;8.896;2023-06-26T07:48:32;31.40;95.70
30678;DHT22;17437;47.188;8.896;2023-06-26T07:51:04;30.70;96.70
30678;DHT22;17437;47.188;8.896;2023-06-26T07:53:36;30.10;98.10
30678;DHT22;17437;47.188;8.896;2023-06-26T07:56:08;29.60;98.70
30678;DHT22;17437;47.188;8.896;2023-06-26T07:58:39;29.20;98.60
30678;DHT22;17437;47.188;8.896;2023-06-26T08:01:11;29.00;99.00
30678;DHT22;17437;47.188;8.896;2023-06-26T08:03:42;29.10;99.10
30678;DHT22;17437;47.188;8.896;2023-06-26T08:06:14;29.00;99.60
30678;DHT22;17437;47.188;8.896;2023-06-26T08:08:46;28.90;99.90
30678;DHT22;17437;47.188;8.896;2023-06-26T08:11:18;28.90;99.50
30678;DHT22;17437;47.188;8.896;2023-06-26T08:13:49;28.90;99.90
30678;DHT22;17437;47.188;8.896;2023-06-26T08:16:21;28.90;99.20
30678;DHT22;17437;47.188;8.896;2023-06-26T08:18:53;29.00;98.70
30678;DHT22;17437;47.188;8.896;2023-06-26T08:21:24;29.20;98.20
30678;DHT22;17437;47.188;8.896;2023-06-26T08:23:56;29.40;98.40
30678;DHT22;17437;47.188;8.896;2023-06-26T08:26:27;29.50;97.90
30678;DHT22;17437;47.188;8.896;2023-06-26T08:28:59;29.50;97.70
30678;DHT22;17437;47.188;8.896;2023-06-26T08:31:31;29.60;95.50
30678;DHT22;17437;47.188;8.896;2023-06-26T08:34:05;29.80;93.30
30678;DHT22;17437;47.188;8.896;2023-06-26T08:36:37;30.10;92.30
30678;DHT22;17437;47.188;8.896;2023-06-26T08:39:09;30.40;92.40
30678;DHT22;17437;47.188;8.896;2023-06-26T08:41:41;30.50;92.20
30678;DHT22;17437;47.188;8.896;2023-06-26T08:44:13;30.60;92.30
30678;DHT22;17437;47.188;8.896;2023-06-26T08:46:45;30.80;91.90
30678;DHT22;17437;47.188;8.896;2023-06-26T08:49:20;30.90;91.70
30678;DHT22;17437;47.188;8.896;2023-06-26T08:51:56;31.10;91.70
30678;DHT22;17437;47.188;8.896;2023-06-26T08:54:30;31.30;90.80
30678;DHT22;17437;47.188;8.896;2023-06-26T08:57:03;31.50;91.00
30678;DHT22;17437;47.188;8.896;2023-06-26T08:59:37;31.80;90.80
30678;DHT22;17437;47.188;8.896;2023-06-26T09:02:09;31.70;88.70
30678;DHT22;17437;47.188;8.896;2023-06-26T09:04:42;31.40;89.40
30678;DHT22;17437;47.188;8.896;2023-06-26T09:07:13;30.90;88.20
30678;DHT22;17437;47.188;8.896;2023-06-26T09:09:45;30.70;89.70
30678;DHT22;17437;47.188;8.896;2023-06-26T09:12:17;30.70;90.40
30678;DHT22;17437;47.188;8.896;2023-06-26T09:14:49;30.30;90.20
30678;DHT22;17437;47.188;8.896;2023-06-26T09:17:24;30.00;90.80
30678;DHT22;17437;47.188;8.896;2023-06-26T09:19:57;30.20;90.50
30678;DHT22;17437;47.188;8.896;2023-06-26T09:22:29;30.20;90.10
30678;DHT22;17437;47.188;8.896;2023-06-26T09:25:01;30.30;90.70
30678;DHT22;17437;47.188;8.896;2023-06-26T09:27:37;30.60;90.20
30678;DHT22;17437;47.188;8.896;2023-06-26T09:34:09;31.10;89.20
30678;DHT22;17437;47.188;8.896;2023-06-26T09:36:48;31.30;88.60
30678;DHT22;17437;47.188;8.896;2023-06-26T09:39:25;31.40;87.80
30678;DHT22;17437;47.188;8.896;2023-06-26T09:42:02;31.50;86.40
30678;DHT22;17437;47.188;8.896;2023-06-26T09:44:44;31.60;86.70
30678;DHT22;17437;47.188;8.896;2023-06-26T09:54:29;31.90;85.00
30678;DHT22;17437;47.188;8.896;2023-06-26T09:57:09;31.90;84.80
30678;DHT22;17437;47.188;8.896;2023-06-26T10:03:05;31.90;85.10
30678;DHT22;17437;47.188;8.896;2023-06-26T10:09:08;32.00;85.50
30678;DHT22;17437;47.188;8.896;2023-06-26T10:12:17;32.20;85.30
30678;DHT22;17437;47.188;8.896;2023-06-26T10:15:32;32.50;84.60
30678;DHT22;17437;47.188;8.896;2023-06-26T10:18:35;32.60;83.90
30678;DHT22;17437;47.188;8.896;2023-06-26T10:21:19;32.70;82.40
30678;DHT22;17437;47.188;8.896;2023-06-26T10:23:52;32.50;83.70
30678;DHT22;17437;47.188;8.896;2023-06-26T10:26:35;32.20;82.30
30678;DHT22;17437;47.188;8.896;2023-06-26T10:30:13;32.00;82.30
30678;DHT22;17437;47.188;8.896;2023-06-26T10:33:22;31.70;83.30
30678;DHT22;17437;47.188;8.896;2023-06-26T10:36:15;31.70;83.40
30678;DHT22;17437;47.188;8.896;2023-06-26T10:42:35;32.00;83.90
30678;DHT22;17437;47.188;8.896;2023-06-26T10:45:13;32.20;81.80
30678;DHT22;17437;47.188;8.896;2023-06-26T10:47:48;32.10;82.80
30678;DHT22;17437;47.188;8.896;2023-06-26T10:50:25;32.10;82.40
30678;DHT22;17437;47.188;8.896;2023-06-26T10:53:15;32.00;80.90
30678;DHT22;17437;47.188;8.896;2023-06-26T10:55:55;31.90;81.80
30678;DHT22;17437;47.188;8.896;2023-06-26T10:58:31;31.70;82.40
30678;DHT22;17437;47.188;8.896;2023-06-26T11:01:22;31.50;82.30
30678;DHT22;17437;47.188;8.896;2023-06-26T11:04:16;31.20;82.80
30678;DHT22;17437;47.188;8.896;2023-06-26T11:10:59;31.20;84.10
30678;DHT22;17437;47.188;8.896;2023-06-26T11:13:47;31.00;83.70
30678;DHT22;17437;47.188;8.896;2023-06-26T11:17:06;31.10;83.50
30678;DHT22;17437;47.188;8.896;2023-06-26T11:19:40;31.10;83.50
30678;DHT22;17437;47.188;8.896;2023-06-26T11:22:23;31.30;83.00
30678;DHT22;17437;47.188;8.896;2023-06-26T11:28:14;31.40;83.50
30678;DHT22;17437;47.188;8.896;2023-06-26T11:30:59;31.50;83.80
30678;DHT22;17437;47.188;8.896;2023-06-26T11:34:35;31.30;82.90
30678;DHT22;17437;47.188;8.896;2023-06-26T11:40:46;31.50;83.90
30678;DHT22;17437;47.188;8.896;2023-06-26T11:43:36;31.50;83.60
30678;DHT22;17437;47.188;8.896;2023-06-26T11:51:08;30.90;82.10
30678;DHT22;17437;47.188;8.896;2023-06-26T12:11:25;30.50;82.20
30678;DHT22;17437;47.188;8.896;2023-06-26T12:20:40;31.30;83.50
30678;DHT22;17437;47.188;8.896;2023-06-26T12:23:33;31.50;82.10
30678;DHT22;17437;47.188;8.896;2023-06-26T12:26:31;31.70;81.40
30678;DHT22;17437;47.188;8.896;2023-06-26T12:32:55;31.70;79.70
30678;DHT22;17437;47.188;8.896;2023-06-26T12:36:06;31.50;80.90
30678;DHT22;17437;47.188;8.896;2023-06-26T12:38:45;31.60;79.40
30678;DHT22;17437;47.188;8.896;2023-06-26T12:41:28;31.90;80.00
30678;DHT22;17437;47.188;8.896;2023-06-26T12:44:42;31.90;79.40
30678;DHT22;17437;47.188;8.896;2023-06-26T12:47:40;32.00;78.90
30678;DHT22;17437;47.188;8.896;2023-06-26T12:51:08;32.00;79.10
30678;DHT22;17437;47.188;8.896;2023-06-26T12:54:08;32.00;78.70
30678;DHT22;17437;47.188;8.896;2023-06-26T12:56:57;32.00;78.10
30678;DHT22;17437;47.188;8.896;2023-06-26T12:59:40;32.00;77.50
30678;DHT22;17437;47.188;8.896;2023-06-26T13:02:36;32.20;77.40
30678;DHT22;17437;47.188;8.896;2023-06-26T13:05:30;32.50;76.00
30678;DHT22;17437;47.188;8.896;2023-06-26T13:08:23;32.50;75.40
30678;DHT22;17437;47.188;8.896;2023-06-26T13:14:25;32.90;77.40
30678;DHT22;17437;47.188;8.896;2023-06-26T13:17:17;33.00;75.10
30678;DHT22;17437;47.188;8.896;2023-06-26T13:25:58;32.80;75.90
30678;DHT22;17437;47.188;8.896;2023-06-26T13:32:33;32.60;81.70
30678;DHT22;17437;47.188;8.896;2023-06-26T13:38:37;32.50;81.50
30678;DHT22;17437;47.188;8.896;2023-06-26T13:57:56;32.30;88.00
30678;DHT22;17437;47.188;8.896;2023-06-26T14:00:31;32.40;88.10
30678;DHT22;17437;47.188;8.896;2023-06-26T14:03:05;32.50;87.70
30678;DHT22;17437;47.188;8.896;2023-06-26T14:05:38;32.80;86.40
30678;DHT22;17437;47.188;8.896;2023-06-26T14:08:12;32.80;86.20
30678;DHT22;17437;47.188;8.896;2023-06-26T14:10:44;32.90;85.40
30678;DHT22;17437;47.188;8.896;2023-06-26T14:13:17;32.90;85.90
30678;DHT22;17437;47.188;8.896;2023-06-26T14:15:52;33.00;86.90
30678;DHT22;17437;47.188;8.896;2023-06-26T14:18:25;33.00;86.60
30678;DHT22;17437;47.188;8.896;2023-06-26T14:20:59;33.00;88.40
30678;DHT22;17437;47.188;8.896;2023-06-26T14:23:34;32.80;86.60
30678;DHT22;17437;47.188;8.896;2023-06-26T14:26:08;32.70;86.60
30678;DHT22;17437;47.188;8.896;2023-06-26T14:28:41;32.50;87.10
30678;DHT22;17437;47.188;8.896;2023-06-26T14:31:14;32.20;87.20
30678;DHT22;17437;47.188;8.896;2023-06-26T14:33:47;32.20;85.80
30678;DHT22;17437;47.188;8.896;2023-06-26T14:36:22;32.20;87.60
30678;DHT22;17437;47.188;8.896;2023-06-26T14:38:54;32.30;86.60
30678;DHT22;17437;47.188;8.896;2023-06-26T14:41:29;32.20;87.60
30678;DHT22;17437;47.188;8.896;2023-06-26T14:44:03;32.20;86.10
30678;DHT22;17437;47.188;8.896;2023-06-26T14:46:38;32.20;86.20
30678;DHT22;17437;47.188;8.896;2023-06-26T14:49:10;32.20;85.40
30678;DHT22;17437;47.188;8.896;2023-06-26T14:51:43;32.10;86.00
30678;DHT22;17437;47.188;8.896;2023-06-26T14:54:17;32.00;85.50
30678;DHT22;17437;47.188;8.896;2023-06-26T14:56:49;31.80;86.40
30678;DHT22;17437;47.188;8.896;2023-06-26T14:59:21;31.80;86.10
30678;DHT22;17437;47.188;8.896;2023-06-26T15:01:53;31.70;84.60
30678;DHT22;17437;47.188;8.896;2023-06-26T15:04:26;31.60;84.80
30678;DHT22;17437;47.188;8.896;2023-06-26T15:06:58;31.50;84.20
30678;DHT22;17437;47.188;8.896;2023-06-26T15:09:31;31.40;84.90
30678;DHT22;17437;47.188;8.896;2023-06-26T15:12:03;31.40;85.50
30678;DHT22;17437;47.188;8.896;2023-06-26T15:14:35;31.30;85.70
30678;DHT22;17437;47.188;8.896;2023-06-26T15:17:08;31.30;87.00
30678;DHT22;17437;47.188;8.896;2023-06-26T15:19:42;31.40;84.90
30678;DHT22;17437;47.188;8.896;2023-06-26T15:22:16;31.50;84.60
30678;DHT22;17437;47.188;8.896;2023-06-26T15:24:48;31.40;85.10
30678;DHT22;17437;47.188;8.896;2023-06-26T15:27:20;31.50;84.30
30678;DHT22;17437;47.188;8.896;2023-06-26T15:29:54;31.30;83.20
30678;DHT22;17437;47.188;8.896;2023-06-26T15:32:27;31.00;85.10
30678;DHT22;17437;47.188;8.896;2023-06-26T15:35:00;31.10;86.40
30678;DHT22;17437;47.188;8.896;2023-06-26T15:37:32;31.20;85.40
30678;DHT22;17437;47.188;8.896;2023-06-26T15:40:06;31.20;86.20
30678;DHT22;17437;47.188;8.896;2023-06-26T15:42:48;31.30;86.00
30678;DHT22;17437;47.188;8.896;2023-06-26T15:45:21;31.20;85.80
30678;DHT22;17437;47.188;8.896;2023-06-26T15:47:57;31.20;85.70
30678;DHT22;17437;47.188;8.896;2023-06-26T15:50:31;31.30;87.30
30678;DHT22;17437;47.188;8.896;2023-06-26T15:53:04;31.30;86.20
30678;DHT22;17437;47.188;8.896;2023-06-26T15:55:37;31.30;86.20
30678;DHT22;17437;47.188;8.896;2023-06-26T15:58:10;31.40;87.00
30678;DHT22;17437;47.188;8.896;2023-06-26T16:00:41;31.50;86.10
30678;DHT22;17437;47.188;8.896;2023-06-26T16:03:14;31.60;87.00
30678;DHT22;17437;47.188;8.896;2023-06-26T16:05:46;31.70;87.00
30678;DHT22;17437;47.188;8.896;2023-06-26T16:08:19;31.90;86.10
30678;DHT22;17437;47.188;8.896;2023-06-26T16:10:52;31.80;85.30
30678;DHT22;17437;47.188;8.896;2023-06-26T16:13:25;32.10;84.60
30678;DHT22;17437;47.188;8.896;2023-06-26T16:15:56;32.10;84.80
30678;DHT22;17437;47.188;8.896;2023-06-26T16:18:28;32.20;82.50
30678;DHT22;17437;47.188;8.896;2023-06-26T16:21:00;31.90;81.70
30678;DHT22;17437;47.188;8.896;2023-06-26T16:23:31;31.80;82.00
30678;DHT22;17437;47.188;8.896;2023-06-26T16:26:04;31.40;81.80
30678;DHT22;17437;47.188;8.896;2023-06-26T16:28:36;30.80;83.00
30678;DHT22;17437;47.188;8.896;2023-06-26T16:31:07;30.70;82.80
30678;DHT22;17437;47.188;8.896;2023-06-26T16:33:39;30.80;82.20
30678;DHT22;17437;47.188;8.896;2023-06-26T16:36:11;30.90;82.70
30678;DHT22;17437;47.188;8.896;2023-06-26T16:38:44;31.20;80.90
30678;DHT22;17437;47.188;8.896;2023-06-26T16:41:15;31.60;79.60
30678;DHT22;17437;47.188;8.896;2023-06-26T16:43:47;31.40;77.80
30678;DHT22;17437;47.188;8.896;2023-06-26T16:46:19;31.00;78.80
30678;DHT22;17437;47.188;8.896;2023-06-26T16:48:51;30.80;79.00
30678;DHT22;17437;47.188;8.896;2023-06-26T16:51:24;30.80;79.10
30678;DHT22;17437;47.188;8.896;2023-06-26T16:53:56;30.90;80.30
30678;DHT22;17437;47.188;8.896;2023-06-26T16:56:28;31.10;80.30
30678;DHT22;17437;47.188;8.896;2023-06-26T16:59:00;31.00;78.30
30678;DHT22;17437;47.188;8.896;2023-06-26T17:01:31;30.80;78.50
30678;DHT22;17437;47.188;8.896;2023-06-26T17:04:03;30.60;80.60
30678;DHT22;17437;47.188;8.896;2023-06-26T17:06:35;30.30;79.30
30678;DHT22;17437;47.188;8.896;2023-06-26T17:09:07;30.00;79.50
30678;DHT22;17437;47.188;8.896;2023-06-26T17:11:39;29.80;80.80
30678;DHT22;17437;47.188;8.896;2023-06-26T17:14:14;29.60;82.30
30678;DHT22;17437;47.188;8.896;2023-06-26T17:16:46;29.50;83.40
30678;DHT22;17437;47.188;8.896;2023-06-26T17:19:17;29.40;83.30
30678;DHT22;17437;47.188;8.896;2023-06-26T17:21:50;29.30;84.00
30678;DHT22;17437;47.188;8.896;2023-06-26T17:24:21;29.20;84.60
30678;DHT22;17437;47.188;8.896;2023-06-26T17:26:54;29.10;84.60
30678;DHT22;17437;47.188;8.896;2023-06-26T17:29:26;28.90;85.00
30678;DHT22;17437;47.188;8.896;2023-06-26T17:31:58;29.00;86.00
30678;DHT22;17437;47.188;8.896;2023-06-26T17:34:29;29.10;86.50
30678;DHT22;17437;47.188;8.896;2023-06-26T17:37:01;29.10;84.80
30678;DHT22;17437;47.188;8.896;2023-06-26T17:39:34;29.10;83.30
30678;DHT22;17437;47.188;8.896;2023-06-26T17:42:07;29.00;81.80
30678;DHT22;17437;47.188;8.896;2023-06-26T17:44:38;28.90;82.70
30678;DHT22;17437;47.188;8.896;2023-06-26T17:47:10;28.80;83.50
30678;DHT22;17437;47.188;8.896;2023-06-26T17:49:41;28.60;84.50
30678;DHT22;17437;47.188;8.896;2023-06-26T17:52:13;28.40;87.50
30678;DHT22;17437;47.188;8.896;2023-06-26T17:54:45;28.30;88.90
30678;DHT22;17437;47.188;8.896;2023-06-26T17:57:16;28.00;89.30